Disclaimer

Please do not use the information listed here in-flight or in-navigation, as they are not provided to us by the airports but are provided by volunteers, so they might be outdated.

Search


Regions


Airport information page

Radio informations:
Tower (TWR) - 129.8 MHz
Ground (GND) - 121.85 MHz

Airport informations:
Latitude: 58° 24' 08.20" N
Longitude: 015° 31' 32.46" E
Elevation: 308 feet - 94 meters
Operating hours: Remarks
Operating agency: Military
Timezone: UTC+1(+2DT) - Last Sunday in March to last Sunday in October
Fuel: N/A

Runway information:
01/19 - 7265 x 115 feet< - >2214 x 35 meters
08/26 - 6135 x 121 feet< - >1870 x 37 meters

Recent METARs:
ESCF 170850Z 30010KT 9999 FEW008 BKN011 M06/M07 Q0987
ESCF 170920Z 30010KT 9999 SCT008 OVC010 M06/M07 Q0988
ESCF 170950Z 28010KT 9999 FEW007 BKN008 M06/M06 Q0988

Airport on the map: